Wetterdaten: Woche 14.05.07 - 20.05.07 (KW20)
Datum Zeit Temperatur Luftfeuchte Luftdruck Niederschlag
14.05.2007 00:00 18,2 C 39 % 1011 hPa 0,0 l/m
14.05.2007 01:00 18,3 C 43 % 1012 hPa 0,0 l/m
14.05.2007 02:00 16,5 C 58 % 1013 hPa 0,0 l/m
14.05.2007 03:00 14,6 C 64 % 1013 hPa 0,0 l/m
14.05.2007 04:00 13,4 C 71 % 1013 hPa 0,0 l/m
14.05.2007 05:00 12,3 C 77 % 1013 hPa 0,0 l/m
14.05.2007 06:00 11,7 C 82 % 1013 hPa 0,0 l/m
14.05.2007 07:00 13,5 C 81 % 1013 hPa 0,0 l/m
14.05.2007 08:00 16,6 C 66 % 1013 hPa 0,0 l/m
14.05.2007 09:00 19,1 C 51 % 1013 hPa 0,0 l/m
14.05.2007 10:00 20,5 C 45 % 1012 hPa 0,0 l/m
14.05.2007 11:00 21,1 C 43 % 1012 hPa 0,0 l/m
14.05.2007 12:00 20,9 C 43 % 1011 hPa 0,0 l/m
14.05.2007 13:00 21,1 C 43 % 1010 hPa 0,0 l/m
14.05.2007 14:00 21,3 C 43 % 1009 hPa 0,0 l/m
14.05.2007 15:00 21,8 C 43 % 1008 hPa 0,0 l/m
14.05.2007 16:00 20,5 C 47 % 1007 hPa 0,0 l/m
14.05.2007 17:00 17,7 C 51 % 1007 hPa 0,0 l/m
14.05.2007 18:00 15,7 C 57 % 1007 hPa 0,0 l/m
14.05.2007 19:00 13,5 C 63 % 1009 hPa 0,0 l/m
14.05.2007 20:00 11,7 C 73 % 1011 hPa 0,0 l/m
14.05.2007 21:00 10,8 C 85 % 1013 hPa 0,0 l/m
14.05.2007 22:00 10,5 C 89 % 1013 hPa 0,0 l/m
14.05.2007 23:00 10,0 C 89 % 1015 hPa 1,0 l/m
15.05.2007 00:00 8,7 C 90 % 1015 hPa 3,0 l/m
15.05.2007 01:00 7,9 C 93 % 1016 hPa 0,0 l/m
15.05.2007 02:00 7,7 C 94 % 1016 hPa 0,0 l/m
15.05.2007 03:00 7,7 C 96 % 1016 hPa 0,0 l/m
15.05.2007 04:00 7,6 C 96 % 1016 hPa 0,0 l/m
15.05.2007 05:00 7,4 C 96 % 1015 hPa 0,0 l/m
15.05.2007 06:00 7,3 C 95 % 1015 hPa 0,0 l/m
15.05.2007 07:00 7,8 C 95 % 1015 hPa 0,0 l/m
15.05.2007 08:00 9,3 C 84 % 1016 hPa 0,0 l/m
15.05.2007 09:00 10,3 C 75 % 1016 hPa 0,0 l/m
15.05.2007 10:00 10,9 C 71 % 1016 hPa 0,0 l/m
15.05.2007 11:00 10,9 C 72 % 1017 hPa 0,0 l/m
15.05.2007 12:00 10,4 C 78 % 1017 hPa 2,0 l/m
15.05.2007 13:00 9,8 C 88 % 1017 hPa 0,0 l/m
15.05.2007 14:00 10,9 C 77 % 1017 hPa 1,0 l/m
15.05.2007 15:00 11,2 C 68 % 1017 hPa 0,0 l/m
15.05.2007 16:00 11,4 C 62 % 1018 hPa 0,0 l/m
15.05.2007 17:00 10,8 C 62 % 1019 hPa 0,0 l/m
15.05.2007 18:00 9,9 C 66 % 1019 hPa 0,0 l/m
15.05.2007 19:00 10,5 C 61 % 1019 hPa 0,0 l/m
15.05.2007 20:00 9,5 C 65 % 1019 hPa 0,0 l/m
15.05.2007 21:00 8,1 C 75 % 1020 hPa 0,0 l/m
15.05.2007 22:00 7,3 C 80 % 1020 hPa 0,0 l/m
15.05.2007 23:00 6,3 C 84 % 1020 hPa 0,0 l/m
16.05.2007 00:00 5,4 C 88 % 1020 hPa 0,0 l/m
16.05.2007 01:00 4,8 C 89 % 1020 hPa 0,0 l/m
16.05.2007 02:00 4,5 C 92 % 1020 hPa 0,0 l/m
16.05.2007 03:00 4,1 C 93 % 1019 hPa 0,0 l/m
16.05.2007 04:00 3,6 C 95 % 1019 hPa 0,0 l/m
16.05.2007 05:00 3,4 C 96 % 1018 hPa 0,0 l/m
16.05.2007 06:00 3,5 C 97 % 1018 hPa 0,0 l/m
16.05.2007 07:00 5,5 C 98 % 1018 hPa 0,0 l/m
16.05.2007 08:00 8,4 C 91 % 1017 hPa 0,0 l/m
16.05.2007 09:00 10,8 C 65 % 1017 hPa 0,0 l/m
16.05.2007 10:00 13,3 C 51 % 1017 hPa 0,0 l/m
16.05.2007 11:00 14,5 C 42 % 1016 hPa 0,0 l/m
16.05.2007 12:00 14,9 C 38 % 1016 hPa 0,0 l/m
16.05.2007 13:00 16,1 C 37 % 1015 hPa 0,0 l/m
16.05.2007 14:00 16,6 C 36 % 1015 hPa 0,0 l/m
16.05.2007 15:00 16,4 C 35 % 1014 hPa 0,0 l/m
16.05.2007 16:00 16,4 C 35 % 1014 hPa 0,0 l/m
16.05.2007 17:00 15,8 C 35 % 1013 hPa 0,0 l/m
16.05.2007 18:00 14,1 C 43 % 1014 hPa 0,0 l/m
16.05.2007 19:00 11,6 C 62 % 1014 hPa 0,0 l/m
16.05.2007 20:00 10,4 C 70 % 1014 hPa 0,0 l/m
16.05.2007 21:00 10,0 C 78 % 1014 hPa 0,0 l/m
16.05.2007 22:00 9,5 C 89 % 1014 hPa 0,0 l/m
16.05.2007 23:00 9,3 C 94 % 1014 hPa 0,0 l/m
17.05.2007 00:00 9,3 C 95 % 1014 hPa 3,0 l/m
17.05.2007 01:00 8,9 C 94 % 1014 hPa 0,0 l/m
17.05.2007 02:00 8,6 C 94 % 1014 hPa 1,0 l/m
17.05.2007 03:00 8,2 C 95 % 1014 hPa 1,0 l/m
17.05.2007 04:00 8,0 C 96 % 1014 hPa 1,0 l/m
17.05.2007 05:00 7,7 C 96 % 1013 hPa 1,0 l/m
17.05.2007 06:00 7,4 C 96 % 1013 hPa 1,0 l/m
17.05.2007 07:00 7,5 C 97 % 1013 hPa 1,0 l/m
17.05.2007 08:00 7,8 C 98 % 1012 hPa 1,0 l/m
17.05.2007 09:00 8,1 C 98 % 1012 hPa 1,0 l/m
17.05.2007 10:00 8,4 C 98 % 1012 hPa 1,0 l/m
17.05.2007 11:00 8,5 C 98 % 1011 hPa 1,0 l/m
17.05.2007 12:00 9,0 C 98 % 1011 hPa 0,0 l/m
17.05.2007 13:00 9,7 C 98 % 1010 hPa 1,0 l/m
17.05.2007 14:00 10,3 C 98 % 1010 hPa 1,0 l/m
17.05.2007 15:00 10,9 C 98 % 1010 hPa 4,0 l/m
17.05.2007 16:00 11,0 C 98 % 1011 hPa 2,0 l/m
17.05.2007 17:00 11,2 C 98 % 1012 hPa 0,0 l/m
17.05.2007 18:00 11,0 C 95 % 1013 hPa 0,0 l/m
17.05.2007 19:00 10,6 C 94 % 1014 hPa 0,0 l/m
17.05.2007 20:00 10,1 C 92 % 1015 hPa 0,0 l/m
17.05.2007 21:00 9,6 C 93 % 1016 hPa 0,0 l/m
17.05.2007 22:00 9,1 C 94 % 1017 hPa 0,0 l/m
17.05.2007 23:00 8,8 C 95 % 1018 hPa 0,0 l/m
18.05.2007 00:00 8,7 C 97 % 1019 hPa 0,0 l/m
18.05.2007 01:00 8,4 C 97 % 1019 hPa 0,0 l/m
18.05.2007 02:00 7,6 C 97 % 1020 hPa 0,0 l/m
18.05.2007 03:00 7,4 C 98 % 1020 hPa 0,0 l/m
18.05.2007 04:00 7,4 C 98 % 1020 hPa 0,0 l/m
18.05.2007 05:00 7,1 C 98 % 1020 hPa 0,0 l/m
18.05.2007 06:00 7,1 C 98 % 1021 hPa 0,0 l/m
18.05.2007 07:00 7,7 C 98 % 1021 hPa 0,0 l/m
18.05.2007 08:00 8,6 C 98 % 1021 hPa 2,0 l/m
18.05.2007 09:00 10,9 C 95 % 1021 hPa 0,0 l/m
18.05.2007 10:00 12,3 C 77 % 1021 hPa 0,0 l/m
18.05.2007 11:00 13,7 C 61 % 1021 hPa 0,0 l/m
18.05.2007 12:00 15,6 C 48 % 1021 hPa 0,0 l/m
18.05.2007 13:00 16,7 C 41 % 1020 hPa 0,0 l/m
18.05.2007 14:00 17,9 C 37 % 1020 hPa 0,0 l/m
18.05.2007 15:00 18,3 C 35 % 1019 hPa 0,0 l/m
18.05.2007 16:00 18,6 C 34 % 1019 hPa 0,0 l/m
18.05.2007 17:00 19,7 C 30 % 1019 hPa 0,0 l/m
18.05.2007 18:00 20,1 C 28 % 1018 hPa 0,0 l/m
18.05.2007 19:00 19,2 C 30 % 1018 hPa 0,0 l/m
18.05.2007 20:00 16,1 C 45 % 1018 hPa 0,0 l/m
18.05.2007 21:00 13,0 C 55 % 1018 hPa 0,0 l/m
18.05.2007 22:00 10,9 C 63 % 1018 hPa 0,0 l/m
18.05.2007 23:00 9,6 C 73 % 1018 hPa 0,0 l/m
19.05.2007 00:00 8,6 C 80 % 1018 hPa 0,0 l/m
19.05.2007 01:00 7,9 C 85 % 1018 hPa 0,0 l/m
19.05.2007 02:00 7,1 C 87 % 1017 hPa 0,0 l/m
19.05.2007 03:00 6,5 C 90 % 1017 hPa 0,0 l/m
19.05.2007 04:00 5,9 C 91 % 1017 hPa 0,0 l/m
19.05.2007 05:00 5,4 C 93 % 1017 hPa 0,0 l/m
19.05.2007 06:00 5,5 C 95 % 1017 hPa 0,0 l/m
19.05.2007 07:00 8,5 C 94 % 1018 hPa 0,0 l/m
19.05.2007 08:00 12,7 C 75 % 1018 hPa 0,0 l/m
19.05.2007 09:00 15,6 C 59 % 1017 hPa 0,0 l/m
19.05.2007 10:00 18,7 C 43 % 1017 hPa 0,0 l/m
19.05.2007 11:00 20,4 C 37 % 1017 hPa 0,0 l/m
19.05.2007 12:00 21,9 C 33 % 1017 hPa 0,0 l/m
19.05.2007 13:00 23,2 C 31 % 1016 hPa 0,0 l/m
19.05.2007 14:00 24,5 C 29 % 1016 hPa 0,0 l/m
19.05.2007 15:00 24,8 C 23 % 1016 hPa 0,0 l/m
19.05.2007 16:00 25,3 C 23 % 1015 hPa 0,0 l/m
19.05.2007 17:00 25,2 C 25 % 1015 hPa 0,0 l/m
19.05.2007 18:00 24,4 C 31 % 1015 hPa 0,0 l/m
19.05.2007 19:00 22,9 C 32 % 1015 hPa 0,0 l/m
19.05.2007 20:00 21,2 C 37 % 1015 hPa 0,0 l/m
19.05.2007 21:00 18,2 C 48 % 1016 hPa 0,0 l/m
19.05.2007 22:00 15,6 C 59 % 1016 hPa 0,0 l/m
19.05.2007 23:00 14,1 C 66 % 1016 hPa 0,0 l/m
20.05.2007 00:00 12,9 C 70 % 1016 hPa 0,0 l/m
20.05.2007 01:00 11,9 C 72 % 1016 hPa 0,0 l/m
20.05.2007 02:00 11,3 C 71 % 1015 hPa 0,0 l/m
20.05.2007 03:00 10,8 C 72 % 1015 hPa 0,0 l/m
20.05.2007 04:00 10,4 C 72 % 1015 hPa 0,0 l/m
20.05.2007 05:00 9,9 C 72 % 1015 hPa 0,0 l/m
20.05.2007 06:00 9,8 C 74 % 1015 hPa 0,0 l/m
20.05.2007 07:00 11,8 C 69 % 1015 hPa 0,0 l/m
20.05.2007 08:00 15,3 C 54 % 1015 hPa 0,0 l/m
20.05.2007 09:00 17,9 C 47 % 1015 hPa 0,0 l/m
20.05.2007 10:00 20,2 C 42 % 1015 hPa 0,0 l/m
20.05.2007 11:00 22,2 C 34 % 1015 hPa 0,0 l/m
20.05.2007 12:00 23,2 C 32 % 1015 hPa 0,0 l/m
20.05.2007 13:00 24,6 C 26 % 1015 hPa 0,0 l/m
20.05.2007 14:00 25,6 C 25 % 1014 hPa 0,0 l/m
20.05.2007 15:00 26,4 C 25 % 1014 hPa 0,0 l/m
20.05.2007 16:00 26,8 C 24 % 1014 hPa 0,0 l/m
20.05.2007 17:00 27,4 C 24 % 1014 hPa 0,0 l/m
20.05.2007 18:00 26,8 C 26 % 1014 hPa 0,0 l/m
20.05.2007 19:00 25,3 C 30 % 1014 hPa 0,0 l/m
20.05.2007 20:00 22,7 C 36 % 1015 hPa 0,0 l/m
20.05.2007 21:00 19,7 C 46 % 1015 hPa 0,0 l/m
20.05.2007 22:00 17,7 C 52 % 1015 hPa 0,0 l/m
20.05.2007 23:00 16,3 C 58 % 1016 hPa 0,0 l/m
Min-Datum _ 16.05.07 19.05.07 14.05.07 -
_ Min-Zeit 05:21 15:53 18:22 -
Minimum _ 3,4 C 21 % 1006 hPa -
Max-Datum _ 20.05.07 16.05.07 18.05.07 17.05.07
_ Max-Zeit 17:04 07:14 06:52 15:01
Maximum _ 27,4 C 98 % 1021 hPa 4,0 l/m
Durchschnitt _ 13,1 C 68 % 1016 hPa #30,0 l/m

Durchschnitt Minimum Temp.12,6 C
Durchschnitt Maximum Temp.13,7 C